CGMPW CYHZ-CYQM
Flight info
| Callsign | CGMPW |
|---|---|
| Flight time | 0h 26m |
| Altitude | 12000 |
| Route | KELNO |
| Aircraft | PC24/L-SBDGIRWY/LB2 |
Departure
| Time | 2026-04-22 18:03 |
|---|---|
| Airport | Halifax / Stanfield International Airport (CYHZ) |
Arrival
| Time | 2026-04-22 18:29 |
|---|---|
| Airport | Greater Moncton Roméo LeBlanc International Airport (CYQM) |
| Time | Latitude | Longitude | Altitude | Speed | Heading |
|---|---|---|---|---|---|
| 2026-04-22 17:53 | 44.88222 | -63.51666 | 454 ft | 0 kts | 307° |
| 2026-04-22 17:55 | 44.88222 | -63.51667 | 454 ft | 1 kts | 303° |
| 2026-04-22 17:56 | 44.88219 | -63.51681 | 454 ft | 1 kts | 229° |
| 2026-04-22 17:56 | 44.88211 | -63.51691 | 454 ft | 4 kts | 220° |
| 2026-04-22 17:56 | 44.88179 | -63.51682 | 454 ft | 8 kts | 122° |
| 2026-04-22 17:56 | 44.88158 | -63.51614 | 454 ft | 7 kts | 119° |
| 2026-04-22 17:57 | 44.88129 | -63.51557 | 454 ft | 8 kts | 118° |
| 2026-04-22 17:57 | 44.88152 | -63.51488 | 454 ft | 11 kts | 37° |
| 2026-04-22 17:57 | 44.88222 | -63.51420 | 454 ft | 12 kts | 34° |
| 2026-04-22 17:57 | 44.88292 | -63.51353 | 453 ft | 12 kts | 34° |
| 2026-04-22 17:58 | 44.88361 | -63.51281 | 453 ft | 13 kts | 42° |
| 2026-04-22 17:58 | 44.88392 | -63.51183 | 453 ft | 13 kts | 112° |
| 2026-04-22 17:58 | 44.88347 | -63.51072 | 453 ft | 13 kts | 118° |
| 2026-04-22 17:58 | 44.88318 | -63.50934 | 453 ft | 16 kts | 90° |
| 2026-04-22 17:59 | 44.88328 | -63.50782 | 453 ft | 15 kts | 84° |
| 2026-04-22 17:59 | 44.88339 | -63.50630 | 453 ft | 17 kts | 84° |
| 2026-04-22 17:59 | 44.88352 | -63.50458 | 453 ft | 17 kts | 83° |
| 2026-04-22 17:59 | 44.88364 | -63.50293 | 454 ft | 16 kts | 84° |
| 2026-04-22 18:00 | 44.88366 | -63.50191 | 454 ft | 15 kts | 97° |
| 2026-04-22 18:00 | 44.88300 | -63.50023 | 455 ft | 16 kts | 125° |
| 2026-04-22 18:00 | 44.88236 | -63.49895 | 456 ft | 16 kts | 125° |
| 2026-04-22 18:00 | 44.88168 | -63.49761 | 456 ft | 18 kts | 126° |
| 2026-04-22 18:01 | 44.88093 | -63.49608 | 457 ft | 19 kts | 118° |
| 2026-04-22 18:01 | 44.88088 | -63.49479 | 457 ft | 0 kts | 78° |
| 2026-04-22 18:01 | 44.88090 | -63.49470 | 457 ft | 5 kts | 78° |
| 2026-04-22 18:01 | 44.88091 | -63.49463 | 457 ft | 0 kts | 79° |
| 2026-04-22 18:02 | 44.88100 | -63.49425 | 457 ft | 14 kts | 65° |
| 2026-04-22 18:03 | 44.88206 | -63.49405 | 457 ft | 19 kts | 311° |
| 2026-04-22 18:03 | 44.88360 | -63.49707 | 455 ft | 81 kts | 305° |
| 2026-04-22 18:03 | 44.88848 | -63.50690 | 452 ft | 159 kts | 304° |
| 2026-04-22 18:03 | 44.89529 | -63.52125 | 1168 ft | 181 kts | 303° |
| 2026-04-22 18:04 | 44.90337 | -63.53724 | 2013 ft | 223 kts | 306° |
| 2026-04-22 18:04 | 44.91337 | -63.55579 | 2918 ft | 256 kts | 307° |
| 2026-04-22 18:04 | 44.92507 | -63.57758 | 3402 ft | 300 kts | 307° |
| 2026-04-22 18:04 | 44.93950 | -63.59865 | 3813 ft | 304 kts | 325° |
| 2026-04-22 18:05 | 44.95693 | -63.61136 | 4201 ft | 271 kts | 335° |
| 2026-04-22 18:05 | 44.97453 | -63.62369 | 4616 ft | 286 kts | 330° |
| 2026-04-22 18:05 | 44.99142 | -63.63906 | 5374 ft | 295 kts | 324° |
| 2026-04-22 18:05 | 45.00844 | -63.65582 | 6132 ft | 301 kts | 325° |
| 2026-04-22 18:06 | 45.02605 | -63.67215 | 6882 ft | 306 kts | 327° |
| 2026-04-22 18:06 | 45.04403 | -63.68851 | 7633 ft | 309 kts | 327° |
| 2026-04-22 18:06 | 45.06209 | -63.70521 | 8380 ft | 313 kts | 326° |
| 2026-04-22 18:06 | 45.08037 | -63.72222 | 9132 ft | 316 kts | 326° |
| 2026-04-22 18:07 | 45.09258 | -63.73355 | 9625 ft | 318 kts | 326° |
| 2026-04-22 18:07 | 45.11764 | -63.75682 | 10629 ft | 324 kts | 326° |
| 2026-04-22 18:07 | 45.13659 | -63.77438 | 11339 ft | 328 kts | 326° |
| 2026-04-22 18:07 | 45.15557 | -63.79205 | 11752 ft | 331 kts | 326° |
| 2026-04-22 18:08 | 45.17504 | -63.81009 | 11822 ft | 332 kts | 326° |
| 2026-04-22 18:08 | 45.19431 | -63.82814 | 11815 ft | 332 kts | 326° |
| 2026-04-22 18:08 | 45.21348 | -63.84634 | 11808 ft | 330 kts | 323° |
| 2026-04-22 18:08 | 45.23025 | -63.86846 | 11807 ft | 330 kts | 310° |
| 2026-04-22 18:09 | 45.24567 | -63.89247 | 11809 ft | 330 kts | 317° |
| 2026-04-22 18:09 | 45.26372 | -63.91271 | 11811 ft | 331 kts | 322° |
| 2026-04-22 18:09 | 45.28177 | -63.93301 | 11813 ft | 331 kts | 319° |
| 2026-04-22 18:09 | 45.29866 | -63.95534 | 11812 ft | 331 kts | 315° |
| 2026-04-22 18:10 | 45.31519 | -63.97802 | 11812 ft | 330 kts | 316° |
| 2026-04-22 18:10 | 45.33222 | -63.99995 | 11812 ft | 330 kts | 318° |
| 2026-04-22 18:10 | 45.34931 | -64.02176 | 11812 ft | 330 kts | 317° |
| 2026-04-22 18:10 | 45.36604 | -64.04358 | 11811 ft | 330 kts | 317° |
| 2026-04-22 18:11 | 45.38301 | -64.06577 | 11766 ft | 331 kts | 317° |
| 2026-04-22 18:11 | 45.39434 | -64.08054 | 11597 ft | 331 kts | 317° |
| 2026-04-22 18:11 | 45.41124 | -64.10256 | 11344 ft | 328 kts | 317° |
| 2026-04-22 18:11 | 45.42806 | -64.12445 | 11092 ft | 326 kts | 317° |
| 2026-04-22 18:12 | 45.45017 | -64.15337 | 10759 ft | 325 kts | 317° |
| 2026-04-22 18:12 | 45.46147 | -64.16812 | 10589 ft | 325 kts | 317° |
| 2026-04-22 18:12 | 45.47816 | -64.18996 | 10119 ft | 325 kts | 317° |
| 2026-04-22 18:12 | 45.49427 | -64.21104 | 10268 ft | 323 kts | 317° |
| 2026-04-22 18:13 | 45.50994 | -64.23159 | 9813 ft | 291 kts | 317° |
| 2026-04-22 18:13 | 45.52452 | -64.25069 | 9236 ft | 281 kts | 317° |
| 2026-04-22 18:13 | 45.53902 | -64.26971 | 8684 ft | 284 kts | 317° |
| 2026-04-22 18:13 | 45.55356 | -64.28881 | 8151 ft | 284 kts | 317° |
| 2026-04-22 18:14 | 45.56814 | -64.30794 | 7627 ft | 284 kts | 317° |
| 2026-04-22 18:14 | 45.58265 | -64.32707 | 7109 ft | 284 kts | 316° |
| 2026-04-22 18:14 | 45.59717 | -64.34615 | 6599 ft | 283 kts | 316° |
| 2026-04-22 18:14 | 45.61122 | -64.36465 | 6044 ft | 265 kts | 316° |
| 2026-04-22 18:15 | 45.62439 | -64.38200 | 5493 ft | 251 kts | 317° |
| 2026-04-22 18:15 | 45.63697 | -64.39859 | 4948 ft | 241 kts | 317° |
| 2026-04-22 18:15 | 45.64911 | -64.41459 | 4398 ft | 234 kts | 317° |
| 2026-04-22 18:15 | 45.66070 | -64.42992 | 4026 ft | 223 kts | 317° |
| 2026-04-22 18:16 | 45.67163 | -64.44434 | 3987 ft | 207 kts | 316° |
| 2026-04-22 18:16 | 45.68214 | -64.45821 | 3993 ft | 206 kts | 317° |
| 2026-04-22 18:16 | 45.69264 | -64.47212 | 3990 ft | 206 kts | 317° |
| 2026-04-22 18:16 | 45.70325 | -64.48619 | 3994 ft | 210 kts | 317° |
| 2026-04-22 18:17 | 45.71393 | -64.50030 | 3992 ft | 208 kts | 317° |
| 2026-04-22 18:17 | 45.72458 | -64.51443 | 3994 ft | 209 kts | 316° |
| 2026-04-22 18:17 | 45.73525 | -64.52854 | 3993 ft | 208 kts | 316° |
| 2026-04-22 18:17 | 45.74597 | -64.54276 | 3995 ft | 211 kts | 316° |
| 2026-04-22 18:18 | 45.75678 | -64.55712 | 3995 ft | 212 kts | 316° |
| 2026-04-22 18:18 | 45.76758 | -64.57146 | 3996 ft | 212 kts | 316° |
| 2026-04-22 18:18 | 45.77824 | -64.58560 | 3994 ft | 211 kts | 316° |
| 2026-04-22 18:18 | 45.78896 | -64.59985 | 3993 ft | 209 kts | 316° |
| 2026-04-22 18:19 | 45.79963 | -64.61405 | 3990 ft | 210 kts | 316° |
| 2026-04-22 18:19 | 45.81038 | -64.62836 | 3991 ft | 210 kts | 316° |
| 2026-04-22 18:19 | 45.82114 | -64.64267 | 3988 ft | 212 kts | 316° |
| 2026-04-22 18:19 | 45.83190 | -64.65702 | 3988 ft | 211 kts | 316° |
| 2026-04-22 18:20 | 45.84266 | -64.67133 | 3991 ft | 210 kts | 316° |
| 2026-04-22 18:20 | 45.85339 | -64.68568 | 3995 ft | 210 kts | 316° |
| 2026-04-22 18:20 | 45.86410 | -64.69996 | 3991 ft | 210 kts | 316° |
| 2026-04-22 18:20 | 45.87457 | -64.71392 | 3989 ft | 201 kts | 316° |
| 2026-04-22 18:21 | 45.88442 | -64.72707 | 3980 ft | 186 kts | 316° |
| 2026-04-22 18:21 | 45.89372 | -64.73949 | 3978 ft | 181 kts | 316° |
| 2026-04-22 18:21 | 45.90285 | -64.75171 | 3977 ft | 178 kts | 316° |
| 2026-04-22 18:21 | 45.91192 | -64.76381 | 3972 ft | 177 kts | 315° |
| 2026-04-22 18:22 | 45.92091 | -64.77596 | 3976 ft | 178 kts | 314° |
| 2026-04-22 18:22 | 45.92931 | -64.78909 | 3991 ft | 175 kts | 310° |
| 2026-04-22 18:22 | 45.93715 | -64.80143 | 3977 ft | 161 kts | 311° |
| 2026-04-22 18:22 | 45.94427 | -64.81257 | 3964 ft | 146 kts | 311° |
| 2026-04-22 18:23 | 45.95113 | -64.82335 | 3989 ft | 146 kts | 310° |
| 2026-04-22 18:23 | 45.95791 | -64.83397 | 3948 ft | 141 kts | 310° |
| 2026-04-22 18:23 | 45.96457 | -64.84397 | 3751 ft | 137 kts | 320° |
| 2026-04-22 18:24 | 45.98264 | -64.84989 | 3409 ft | 137 kts | 8° |
| 2026-04-22 18:24 | 45.99154 | -64.84458 | 3236 ft | 139 kts | 19° |
| 2026-04-22 18:24 | 46.00697 | -64.82714 | 2906 ft | 131 kts | 38° |
| 2026-04-22 18:25 | 46.01342 | -64.81875 | 2655 ft | 120 kts | 39° |
| 2026-04-22 18:25 | 46.01947 | -64.81058 | 2518 ft | 122 kts | 40° |
| 2026-04-22 18:25 | 46.02567 | -64.80240 | 2358 ft | 120 kts | 38° |
| 2026-04-22 18:26 | 46.03793 | -64.78610 | 2100 ft | 120 kts | 39° |
| 2026-04-22 18:26 | 46.04433 | -64.77759 | 2125 ft | 124 kts | 39° |
| 2026-04-22 18:26 | 46.05066 | -64.76914 | 1793 ft | 124 kts | 40° |
| 2026-04-22 18:26 | 46.05669 | -64.76097 | 1636 ft | 125 kts | 40° |
| 2026-04-22 18:27 | 46.06291 | -64.75261 | 1464 ft | 119 kts | 40° |
| 2026-04-22 18:27 | 46.06893 | -64.74454 | 1304 ft | 121 kts | 39° |
| 2026-04-22 18:27 | 46.07515 | -64.73624 | 1129 ft | 118 kts | 40° |
| 2026-04-22 18:27 | 46.08098 | -64.72837 | 961 ft | 116 kts | 40° |
| 2026-04-22 18:28 | 46.08675 | -64.72059 | 798 ft | 111 kts | 39° |
| 2026-04-22 18:28 | 46.09230 | -64.71316 | 647 ft | 107 kts | 39° |
| 2026-04-22 18:28 | 46.09774 | -64.70596 | 499 ft | 105 kts | 39° |
| 2026-04-22 18:28 | 46.10303 | -64.69872 | 388 ft | 108 kts | 40° |
| 2026-04-22 18:29 | 46.10840 | -64.69128 | 217 ft | 105 kts | 40° |
| 2026-04-22 18:29 | 46.11289 | -64.68536 | 199 ft | 58 kts | 42° |
| 2026-04-22 18:29 | 46.11575 | -64.68141 | 198 ft | 55 kts | 43° |
| 2026-04-22 18:29 | 46.11794 | -64.67870 | 192 ft | 27 kts | 29° |
| 2026-04-22 18:30 | 46.11904 | -64.67946 | 203 ft | 0 kts | 288° |
| 2026-04-22 18:31 | 46.11905 | -64.68019 | 193 ft | 21 kts | 246° |
| 2026-04-22 18:31 | 46.11797 | -64.68184 | 196 ft | 22 kts | 220° |
| 2026-04-22 18:32 | 46.11680 | -64.68320 | 200 ft | 21 kts | 223° |
| 2026-04-22 18:32 | 46.11577 | -64.68462 | 195 ft | 20 kts | 223° |
| 2026-04-22 18:32 | 46.11479 | -64.68596 | 203 ft | 19 kts | 223° |
| 2026-04-22 18:32 | 46.11368 | -64.68623 | 201 ft | 17 kts | 146° |
| 2026-04-22 18:33 | 46.11280 | -64.68517 | 197 ft | 16 kts | 146° |
| 2026-04-22 18:33 | 46.11175 | -64.68483 | 203 ft | 16 kts | 175° |
| 2026-04-22 18:33 | 46.11059 | -64.68476 | 198 ft | 18 kts | 177° |
| 2026-04-22 18:33 | 46.10933 | -64.68467 | 201 ft | 19 kts | 177° |
| 2026-04-22 18:34 | 46.10799 | -64.68458 | 203 ft | 20 kts | 177° |
| 2026-04-22 18:34 | 46.10652 | -64.68423 | 204 ft | 22 kts | 147° |
| 2026-04-22 18:34 | 46.10571 | -64.68253 | 205 ft | 20 kts | 94° |
| 2026-04-22 18:34 | 46.10581 | -64.68069 | 206 ft | 17 kts | 87° |
| 2026-04-22 18:35 | 46.10586 | -64.67907 | 206 ft | 15 kts | 89° |
| 2026-04-22 18:35 | 46.10580 | -64.67764 | 209 ft | 13 kts | 98° |
| 2026-04-22 18:35 | 46.10576 | -64.67638 | 207 ft | 12 kts | 87° |
| 2026-04-22 18:35 | 46.10581 | -64.67527 | 208 ft | 10 kts | 84° |
| 2026-04-22 18:36 | 46.10587 | -64.67431 | 208 ft | 10 kts | 86° |
| 2026-04-22 18:36 | 46.10592 | -64.67277 | 209 ft | 18 kts | 89° |
| 2026-04-22 18:36 | 46.10597 | -64.67079 | 210 ft | 22 kts | 87° |
| 2026-04-22 18:36 | 46.10607 | -64.66852 | 211 ft | 22 kts | 86° |
| 2026-04-22 18:37 | 46.10615 | -64.66642 | 212 ft | 20 kts | 87° |
| 2026-04-22 18:37 | 46.10623 | -64.66456 | 213 ft | 17 kts | 85° |
| 2026-04-22 18:37 | 46.10633 | -64.66366 | 213 ft | 12 kts | 84° |
| 2026-04-22 18:37 | 46.10595 | -64.66230 | 213 ft | 11 kts | 127° |
| 2026-04-22 18:38 | 46.10556 | -64.66208 | 215 ft | 0 kts | 168° |